Time;durP1;ratioP1;P1;durP2;ratioP2;P2;SDS_P1;SDS_P2;PMS_P1;PMS_P2;Temp;Humidity;BMP_temperature;BMP_pressure;BME280_temperature;BME280_humidity;BME280_pressure;Samples;Min_cycle;Max_cycle;Signal;HPM_P1;HPM_P2
2023/02/22 08:34:50;;;;;;;11.23;4.65;;;;;;;13.92;51.97;96300.81;2087759;28;20568;-58
2023/02/22 08:35:52;;;;;;;12.80;4.28;;;;;;;14.07;51.02;96298.97;2083288;28;20197;-58
2023/02/22 08:36:54;;;;;;;11.55;4.47;;;;;;;14.31;50.39;96300.00;2084055;28;20197;-58
2023/02/22 08:38:01;;;;;;;7.80;4.68;;;;;;;14.82;49.46;96296.69;2079120;28;20196;-58
2023/02/22 08:39:02;;;;;;;13.30;5.32;;;;;;;14.87;49.02;96296.38;2080198;28;20197;-58
2023/02/22 08:40:04;;;;;;;10.65;5.00;;;;;;;15.17;48.36;96300.50;2081158;28;20220;-59
2023/02/22 08:41:05;;;;;;;8.88;4.88;;;;;;;14.57;49.09;96305.34;2083633;28;20238;-58
2023/02/22 08:42:10;;;;;;;10.65;4.93;;;;;;;15.57;48.05;96299.53;2081668;28;20201;-59
2023/02/22 08:43:12;;;;;;;10.00;5.70;;;;;;;16.01;46.30;96298.19;2080748;28;20208;-58
2023/02/22 08:44:14;;;;;;;9.85;5.50;;;;;;;14.76;48.59;96298.91;2080898;28;20267;-59
2023/02/22 08:45:15;;;;;;;19.45;7.30;;;;;;;14.57;49.40;96299.25;2078895;28;20200;-59
2023/02/22 08:46:17;;;;;;;14.30;5.53;;;;;;;14.25;50.01;96302.19;2079994;28;20293;-59
2023/02/22 08:47:18;;;;;;;10.18;5.60;;;;;;;14.55;49.68;96301.97;2083608;28;20196;-58
2023/02/22 08:48:20;;;;;;;12.32;5.40;;;;;;;14.79;49.23;96296.91;2085120;28;20219;-58
2023/02/22 08:49:21;;;;;;;19.05;5.78;;;;;;;14.48;49.39;96296.28;2081519;28;20204;-58
2023/02/22 08:50:26;;;;;;;9.82;5.40;;;;;;;14.60;49.73;96304.28;2082260;28;20662;-58
2023/02/22 08:51:28;;;;;;;11.60;6.63;;;;;;;14.85;48.73;96299.13;2082499;28;20193;-59
2023/02/22 08:52:29;;;;;;;14.25;6.40;;;;;;;14.25;49.76;96299.59;2079066;28;20228;-58
2023/02/22 08:53:31;;;;;;;10.70;5.18;;;;;;;14.50;49.31;96307.53;2079761;28;20200;-59
2023/02/22 08:54:33;;;;;;;14.45;5.50;;;;;;;13.67;50.79;96294.47;2082448;28;20258;-59
2023/02/22 08:55:37;;;;;;;11.13;5.05;;;;;;;13.51;51.11;96300.69;2079063;28;20814;-58
2023/02/22 08:56:38;;;;;;;9.93;5.18;;;;;;;13.07;52.38;96312.06;2081268;28;20197;-59
2023/02/22 08:57:40;;;;;;;10.90;4.80;;;;;;;12.89;52.70;96306.16;2081476;28;20201;-58
2023/02/22 08:58:41;;;;;;;11.77;5.07;;;;;;;12.73;53.49;96307.06;2079048;28;20201;-59
2023/02/22 08:59:43;;;;;;;8.85;5.00;;;;;;;12.56;54.16;96308.03;2078445;28;20387;-58
2023/02/22 09:00:45;;;;;;;9.85;4.75;;;;;;;12.40;54.68;96309.84;2074071;28;20201;-59
2023/02/22 09:01:47;;;;;;;12.63;5.75;;;;;;;12.60;54.54;96311.31;2081991;28;20201;-58
2023/02/22 09:02:48;;;;;;;14.07;6.13;;;;;;;12.41;54.44;96303.69;2080068;28;20212;-58
2023/02/22 09:03:50;;;;;;;12.45;5.10;;;;;;;12.95;53.87;96297.91;2082129;28;20205;-58
2023/02/22 09:04:52;;;;;;;12.25;4.90;;;;;;;13.74;51.67;96303.66;2077934;28;20358;-58
2023/02/22 09:05:54;;;;;;;13.02;4.55;;;;;;;14.14;50.81;96300.25;2084331;28;20201;-58
2023/02/22 09:06:55;;;;;;;6.93;3.70;;;;;;;14.88;49.40;96295.44;2084347;28;20242;-59
2023/02/22 09:07:58;;;;;;;7.45;3.88;;;;;;;14.66;49.05;96296.84;2085198;28;20651;-58
2023/02/22 09:09:00;;;;;;;5.90;3.53;;;;;;;14.13;50.60;96295.94;2083583;28;20197;-58
2023/02/22 09:10:01;;;;;;;20.20;3.50;;;;;;;12.81;54.13;96297.88;2081629;28;20224;-58
2023/02/22 09:11:03;;;;;;;10.40;4.88;;;;;;;12.96;54.84;96302.19;2083698;28;20842;-58
2023/02/22 09:12:04;;;;;;;7.20;3.75;;;;;;;13.97;52.34;96288.22;2083155;28;20292;-59
2023/02/22 09:13:06;;;;;;;6.70;3.90;;;;;;;14.64;51.09;96292.63;2082582;28;20266;-59
2023/02/22 09:14:07;;;;;;;9.77;4.05;;;;;;;14.88;50.01;96291.97;2082101;28;20200;-58
2023/02/22 09:15:10;;;;;;;12.05;4.25;;;;;;;14.98;50.14;96293.00;2081780;28;21005;-58
2023/02/22 09:16:11;;;;;;;15.00;3.90;;;;;;;14.10;51.49;96288.28;2082583;28;20203;-58
2023/02/22 09:17:13;;;;;;;7.93;4.20;;;;;;;13.55;52.90;96290.84;2082410;28;20202;-59
2023/02/22 09:18:16;;;;;;;10.68;4.13;;;;;;;13.71;52.96;96291.56;2081001;28;20193;-58
2023/02/22 09:19:18;;;;;;;6.80;3.65;;;;;;;14.28;52.15;96294.94;2078414;28;20359;-58
2023/02/22 09:20:22;;;;;;;9.02;4.20;;;;;;;15.73;49.74;96294.00;2079997;28;20676;-60
2023/02/22 09:21:23;;;;;;;7.68;3.50;;;;;;;14.90;50.56;96279.56;2082360;28;20196;-58
2023/02/22 09:22:25;;;;;;;7.25;4.15;;;;;;;14.67;51.85;96288.03;2078753;28;20677;-58
2023/02/22 09:23:26;;;;;;;7.55;3.90;;;;;;;15.05;50.60;96293.47;2080994;28;20197;-58
2023/02/22 09:24:28;;;;;;;12.80;4.05;;;;;;;14.66;51.69;96288.16;2080320;28;20221;-58
2023/02/22 09:25:30;;;;;;;5.60;3.00;;;;;;;15.53;50.07;96288.38;2083566;28;20663;-58
2023/02/22 09:26:32;;;;;;;12.55;4.18;;;;;;;15.30;50.38;96287.31;2082659;28;20195;-58
2023/02/22 09:27:33;;;;;;;8.75;4.15;;;;;;;14.90;51.65;96288.28;2082464;28;20205;-58
2023/02/22 09:28:35;;;;;;;9.05;4.55;;;;;;;14.80;51.90;96287.22;2083756;28;20205;-58
2023/02/22 09:29:36;;;;;;;12.18;4.03;;;;;;;13.99;52.77;96284.56;2081632;28;20258;-58
2023/02/22 09:30:38;;;;;;;9.43;4.20;;;;;;;14.78;51.69;96284.69;2078862;28;20509;-58
2023/02/22 09:31:40;;;;;;;8.60;4.18;;;;;;;15.25;50.89;96252.63;2082532;28;20243;-58
2023/02/22 09:32:42;;;;;;;15.20;4.43;;;;;;;15.14;51.20;96287.56;2078671;28;20300;-58
2023/02/22 09:33:43;;;;;;;14.15;4.00;;;;;;;15.38;51.28;96287.66;2079545;28;20605;-59
2023/02/22 09:34:47;;;;;;;21.15;4.70;;;;;;;15.36;50.61;96289.53;2083294;28;20699;-58
2023/02/22 09:35:49;;;;;;;24.63;3.95;;;;;;;15.07;51.47;96281.03;2082325;28;20194;-59
2023/02/22 09:36:50;;;;;;;19.63;4.93;;;;;;;15.39;51.01;96275.31;2078832;28;20205;-59
2023/02/22 09:37:57;;;;;;;32.95;5.70;;;;;;;15.23;51.33;96291.34;2078836;28;20203;-59
2023/02/22 09:38:58;;;;;;;26.70;3.83;;;;;;;15.51;51.18;96292.88;2078197;28;20228;-59
2023/02/22 09:40:00;;;;;;;11.27;4.10;;;;;;;15.83;50.63;96290.66;2078638;28;20750;-58
2023/02/22 09:41:13;;;;;;;31.73;5.70;;;;;;;15.55;49.87;96285.63;2085704;28;20223;-58
2023/02/22 09:42:32;;;;;;;30.20;5.00;;;;;;;15.49;50.13;96286.88;2086087;28;20196;-59
2023/02/22 09:44:07;;;;;;;57.03;5.70;;;;;;;16.25;49.23;96289.44;2083267;28;20668;-61
2023/02/22 09:45:35;;;;;;;10.27;4.20;;;;;;;16.07;48.08;96276.66;2078154;28;20264;-59
2023/02/22 09:46:40;;;;;;;13.40;4.18;;;;;;;17.19;46.97;96285.09;2075024;28;20202;-59
2023/02/22 09:47:45;;;;;;;30.27;5.85;;;;;;;18.10;45.39;96277.94;2072945;28;20661;-59
2023/02/22 09:48:56;;;;;;;18.48;3.95;;;;;;;17.59;45.59;96278.50;2073862;28;20289;-59
2023/02/22 09:50:15;;;;;;;18.48;4.65;;;;;;;17.77;45.77;96268.28;2077383;28;20228;-59
2023/02/22 09:51:19;;;;;;;16.30;3.95;;;;;;;17.95;45.66;96273.91;2074043;28;20219;-59
2023/02/22 09:52:26;;;;;;;9.43;4.32;;;;;;;17.54;45.95;96276.22;2076852;28;20212;-59
2023/02/22 09:53:40;;;;;;;8.88;4.07;;;;;;;17.19;46.25;96286.88;2076888;28;20205;-59
2023/02/22 09:54:50;;;;;;;9.77;3.67;;;;;;;17.27;45.85;96272.13;2075985;28;20231;-59
2023/02/22 09:55:52;;;;;;;10.85;4.57;;;;;;;17.50;45.82;96274.78;2077505;28;20197;-59
2023/02/22 09:56:57;;;;;;;11.80;3.90;;;;;;;17.86;45.83;96274.63;2076564;28;20205;-59
2023/02/22 09:58:03;;;;;;;9.43;4.35;;;;;;;17.27;45.43;96274.78;2076684;28;20553;-59
2023/02/22 09:59:07;;;;;;;8.32;4.60;;;;;;;18.07;44.85;96275.56;2076269;28;20201;-59
2023/02/22 10:00:16;;;;;;;8.23;4.57;;;;;;;18.24;44.47;96276.81;2075097;28;20233;-59
2023/02/22 10:01:31;;;;;;;7.88;4.85;;;;;;;18.52;44.01;96273.72;2077083;28;20251;-59
2023/02/22 10:02:37;;;;;;;8.82;5.03;;;;;;;18.59;43.83;96281.03;2077519;28;20197;-59
2023/02/22 10:03:51;;;;;;;10.75;4.90;;;;;;;18.96;43.31;96271.84;2073102;28;20205;-59
2023/02/22 10:05:05;;;;;;;8.75;3.63;;;;;;;19.43;42.41;96274.06;2075630;28;20314;-65
2023/02/22 10:06:13;;;;;;;18.75;5.25;;;;;;;19.76;41.90;96274.72;2074806;28;20247;-66
2023/02/22 10:07:25;;;;;;;10.35;4.70;;;;;;;19.49;41.43;96277.97;2073947;28;20194;-65
2023/02/22 10:08:32;;;;;;;9.00;5.00;;;;;;;19.23;42.30;96276.59;2073939;28;20224;-65
2023/02/22 10:09:41;;;;;;;10.40;5.45;;;;;;;19.28;42.07;96272.72;2076534;28;20224;-65
2023/02/22 10:10:44;;;;;;;10.63;4.60;;;;;;;19.12;42.10;96274.00;2078912;28;20198;-65
2023/02/22 10:11:56;;;;;;;6.90;4.05;;;;;;;19.55;41.62;96280.09;2079635;28;20587;-65
2023/02/22 10:13:04;;;;;;;7.63;4.72;;;;;;;19.42;41.56;96275.84;2080461;28;20204;-65
2023/02/22 10:14:27;;;;;;;11.82;6.20;;;;;;;19.56;41.49;96276.47;2077985;28;20219;-66
2023/02/22 10:15:41;;;;;;;11.30;5.30;;;;;;;19.72;41.21;96268.03;2079442;28;20231;-65
2023/02/22 10:17:23;;;;;;;9.55;5.05;;;;;;;18.91;42.27;96268.75;2074591;28;20196;-65
2023/02/22 10:18:47;;;;;;;12.13;5.55;;;;;;;19.24;42.06;96282.75;2081763;28;20243;-66
2023/02/22 10:20:00;;;;;;;10.70;5.63;;;;;;;19.57;41.84;96273.69;2075707;28;20244;-65
2023/02/22 10:21:41;;;;;;;14.90;6.00;;;;;;;19.89;41.08;96275.34;2080117;28;20274;-65
2023/02/22 10:23:12;;;;;;;8.55;5.47;;;;;;;19.50;41.08;96269.91;2073767;28;20671;-65
2023/02/22 10:24:26;;;;;;;9.73;5.07;;;;;;;19.98;40.82;96265.75;2075786;28;20641;-66
2023/02/22 10:25:33;;;;;;;9.10;4.60;;;;;;;20.46;40.21;96272.09;2073139;28;20196;-65
2023/02/22 10:26:40;;;;;;;9.75;5.43;;;;;;;20.08;41.13;96268.41;2073463;28;20209;-65
2023/02/22 10:27:51;;;;;;;10.85;5.72;;;;;;;20.43;40.56;96260.91;2073246;28;20347;-65
2023/02/22 10:29:01;;;;;;;16.95;6.50;;;;;;;20.69;40.43;96261.19;2078228;28;20201;-65
2023/02/22 10:30:11;;;;;;;10.73;6.07;;;;;;;20.56;40.74;96267.63;2076886;28;20224;-66
2023/02/22 10:31:36;;;;;;;14.88;5.68;;;;;;;20.97;40.83;96264.81;2073929;28;20205;-65
2023/02/22 10:32:44;;;;;;;12.15;6.95;;;;;;;20.55;40.94;96265.94;2073549;28;20204;-65
2023/02/22 10:33:50;;;;;;;13.90;5.85;;;;;;;20.27;40.56;96266.78;2073307;28;20198;-65
2023/02/22 10:34:53;;;;;;;11.27;6.70;;;;;;;19.93;41.21;96262.66;2072913;28;20582;-66
2023/02/22 10:35:55;;;;;;;12.43;6.45;;;;;;;19.69;41.54;96263.00;2073248;28;20213;-66
2023/02/22 10:37:10;;;;;;;11.63;5.80;;;;;;;19.97;41.49;96272.03;2074305;28;20205;-65
2023/02/22 10:38:23;;;;;;;12.27;5.68;;;;;;;20.41;41.06;96268.19;2077205;28;20280;-66
2023/02/22 10:39:31;;;;;;;12.90;6.03;;;;;;;19.95;40.65;96258.06;2078095;28;20224;-65
2023/02/22 10:40:33;;;;;;;12.25;6.32;;;;;;;20.13;41.08;96257.41;2078654;28;20201;-65
2023/02/22 10:41:41;;;;;;;9.55;6.70;;;;;;;20.91;39.16;96269.84;2078209;28;20662;-65
2023/02/22 10:42:42;;;;;;;10.43;5.65;;;;;;;19.57;40.85;96260.44;2078280;28;20213;-66
2023/02/22 10:43:44;;;;;;;14.00;6.28;;;;;;;19.58;41.59;96256.81;2075578;28;20282;-65
2023/02/22 10:44:46;;;;;;;12.05;6.60;;;;;;;19.74;41.09;96264.28;2074964;28;20248;-65
2023/02/22 10:45:55;;;;;;;9.95;5.68;;;;;;;20.15;41.34;96263.41;2073240;28;20201;-65
2023/02/22 10:46:59;;;;;;;15.82;6.75;;;;;;;20.82;40.84;96263.56;2073321;28;20221;-65
2023/02/22 10:48:09;;;;;;;15.82;6.63;;;;;;;20.90;39.66;96254.91;2073427;28;20616;-65
2023/02/22 10:49:16;;;;;;;12.57;5.65;;;;;;;20.78;40.16;96262.19;2075949;28;20212;-65
2023/02/22 10:50:19;;;;;;;14.52;7.03;;;;;;;21.52;39.25;96252.63;2078611;28;20232;-65
2023/02/22 10:51:21;;;;;;;15.77;7.10;;;;;;;21.92;38.39;96264.78;2076101;28;20209;-65
2023/02/22 10:52:32;;;;;;;9.48;6.28;;;;;;;22.27;38.54;96257.84;2078966;28;20855;-65
2023/02/22 10:53:37;;;;;;;20.02;6.30;;;;;;;22.41;37.56;96258.31;2077095;28;20225;-65
2023/02/22 10:54:45;;;;;;;18.30;7.45;;;;;;;21.89;38.26;96266.88;2074113;28;20869;-65
2023/02/22 10:56:06;;;;;;;14.25;6.97;;;;;;;22.16;37.12;96266.03;2076101;28;20216;-65
2023/02/22 10:57:09;;;;;;;13.65;7.40;;;;;;;21.79;36.99;96256.31;2078505;28;20640;-65
2023/02/22 10:58:12;;;;;;;12.30;6.85;;;;;;;21.62;37.83;96264.09;2077355;28;20193;-65
2023/02/22 10:59:27;;;;;;;10.25;6.07;;;;;;;21.31;38.53;96253.69;2074101;28;20201;-65
2023/02/22 11:00:38;;;;;;;9.63;6.00;;;;;;;21.24;38.57;96265.84;2077089;28;21176;-66
2023/02/22 11:01:40;;;;;;;10.77;5.90;;;;;;;20.80;39.16;96258.41;2076004;28;20212;-65
2023/02/22 11:02:52;;;;;;;15.20;7.47;;;;;;;20.35;39.58;96259.81;2077529;28;20202;-66
2023/02/22 11:04:03;;;;;;;12.88;7.25;;;;;;;20.79;39.05;96266.53;2074534;28;20233;-65
2023/02/22 11:05:04;;;;;;;12.27;6.45;;;;;;;20.34;39.46;96257.28;2072943;28;20225;-65
2023/02/22 11:06:18;;;;;;;14.18;7.95;;;;;;;20.75;39.13;96247.41;2079916;28;20190;-65
2023/02/22 11:07:20;;;;;;;8.20;6.60;;;;;;;20.42;39.21;96256.56;2074330;28;20537;-65
2023/02/22 11:08:29;;;;;;;10.70;6.30;;;;;;;20.14;40.10;96254.63;2075606;28;20205;-65
2023/02/22 11:09:45;;;;;;;14.27;6.63;;;;;;;20.86;40.25;96257.00;2074499;28;20652;-65
2023/02/22 11:10:48;;;;;;;10.15;5.82;;;;;;;20.44;39.71;96250.16;2077463;28;20189;-65
2023/02/22 11:12:10;;;;;;;12.63;7.03;;;;;;;20.13;40.04;96254.78;2078596;28;20217;-65
2023/02/22 11:13:23;;;;;;;14.07;5.70;;;;;;;20.57;39.75;96247.25;2073312;28;20201;-66
2023/02/22 11:14:29;;;;;;;13.15;6.05;;;;;;;20.44;40.41;96252.81;2072936;28;20197;-65
2023/02/22 11:15:30;;;;;;;10.20;6.85;;;;;;;20.52;40.17;96254.78;2073389;28;20198;-65
2023/02/22 11:16:38;;;;;;;10.40;5.93;;;;;;;20.69;40.28;96245.28;2076083;28;20268;-66
2023/02/22 11:17:40;;;;;;;15.15;6.50;;;;;;;20.37;40.45;96246.41;2078360;28;20255;-65
2023/02/22 11:18:41;;;;;;;10.57;6.30;;;;;;;20.98;39.79;96234.63;2073314;28;20206;-65
2023/02/22 11:19:48;;;;;;;11.60;5.78;;;;;;;21.01;39.12;96242.34;2072738;28;20431;-66
2023/02/22 11:20:59;;;;;;;17.00;7.45;;;;;;;20.96;39.70;96244.59;2073525;28;20224;-66
2023/02/22 11:22:28;;;;;;;11.38;5.95;;;;;;;21.20;39.73;96246.75;2073444;28;20193;-65
2023/02/22 11:23:30;;;;;;;10.55;6.57;;;;;;;21.04;39.77;96244.69;2076376;28;20197;-65
2023/02/22 11:24:32;;;;;;;11.48;6.95;;;;;;;20.86;39.88;96239.28;2074778;28;20218;-65
2023/02/22 11:25:58;;;;;;;12.48;5.88;;;;;;;20.48;40.93;96232.16;2078830;28;20204;-65
2023/02/22 11:27:04;;;;;;;10.98;6.90;;;;;;;20.47;40.42;96234.00;2077647;28;20239;-66
2023/02/22 11:28:31;;;;;;;10.90;6.30;;;;;;;19.45;41.99;96237.66;2077781;28;20219;-65
2023/02/22 11:29:35;;;;;;;14.98;7.28;;;;;;;18.81;42.25;96230.81;2078033;28;20251;-66
2023/02/22 11:30:37;;;;;;;13.32;7.03;;;;;;;18.99;42.50;96231.06;2076957;28;20205;-65
2023/02/22 11:31:44;;;;;;;17.00;7.22;;;;;;;19.47;42.41;96229.63;2078705;28;20287;-66
2023/02/22 11:32:51;;;;;;;14.50;6.90;;;;;;;19.62;41.54;96228.28;2078574;28;20640;-65
2023/02/22 11:33:54;;;;;;;11.00;5.68;;;;;;;19.70;41.60;96228.41;2078481;28;20202;-65
2023/02/22 11:35:17;;;;;;;13.63;7.15;;;;;;;18.80;42.86;96222.00;2075747;28;20716;-65
2023/02/22 11:36:41;;;;;;;15.55;6.72;;;;;;;19.79;42.18;96218.81;2076546;28;20258;-65
2023/02/22 11:37:42;;;;;;;12.90;6.80;;;;;;;20.16;40.91;96222.66;2075521;28;20192;-66
2023/02/22 11:38:58;;;;;;;17.85;7.20;;;;;;;20.17;41.15;96219.06;2080952;28;20224;-66
2023/02/22 11:40:16;;;;;;;12.73;6.55;;;;;;;19.20;41.81;96216.00;2078529;28;20275;-65
2023/02/22 11:41:29;;;;;;;13.52;6.93;;;;;;;19.35;41.85;96223.56;2078653;28;20456;-65
2023/02/22 11:42:31;;;;;;;11.20;6.15;;;;;;;19.81;41.83;96218.72;2076572;28;20292;-66
2023/02/22 11:43:33;;;;;;;15.27;6.18;;;;;;;20.13;41.38;96218.50;2078024;28;20193;-65
2023/02/22 11:44:34;;;;;;;18.05;6.95;;;;;;;19.97;41.45;96212.88;2077132;28;20845;-65
2023/02/22 11:45:37;;;;;;;9.85;6.53;;;;;;;19.79;41.27;96215.34;2074733;28;20190;-66
2023/02/22 11:46:47;;;;;;;15.48;7.53;;;;;;;19.89;41.64;96213.59;2077690;28;20279;-65
2023/02/22 11:47:55;;;;;;;12.27;6.72;;;;;;;20.39;41.17;96209.97;2079808;28;20197;-66
2023/02/22 11:49:00;;;;;;;12.10;6.65;;;;;;;20.54;40.80;96219.19;2076146;28;20351;-65
2023/02/22 11:50:16;;;;;;;10.70;5.78;;;;;;;20.37;40.92;96209.28;2078697;28;20225;-65
2023/02/22 11:51:52;;;;;;;12.27;6.80;;;;;;;19.57;41.56;96207.47;2073514;28;20863;-65
2023/02/22 11:53:20;;;;;;;21.58;8.02;;;;;;;19.13;42.42;96204.25;2067039;28;20209;-65
2023/02/22 11:54:40;;;;;;;21.95;7.20;;;;;;;19.38;42.94;96202.97;2077819;28;20300;-65
2023/02/22 11:55:51;;;;;;;16.42;7.80;;;;;;;19.42;43.41;96208.84;2076069;28;20225;-65
2023/02/22 11:57:01;;;;;;;18.08;7.65;;;;;;;19.82;42.47;96199.16;2077842;28;20193;-65
2023/02/22 11:58:16;;;;;;;16.58;7.45;;;;;;;19.31;43.52;96201.84;2077435;28;20541;-65
2023/02/22 11:59:29;;;;;;;18.92;6.97;;;;;;;19.61;43.51;96204.56;2073644;28;20219;-65
2023/02/22 12:00:52;;;;;;;17.20;7.53;;;;;;;19.81;42.91;96198.34;2074240;28;20236;-65
2023/02/22 12:02:18;;;;;;;14.10;7.78;;;;;;;19.86;42.58;96198.81;2076747;28;20221;-65
2023/02/22 12:04:02;;;;;;;14.52;8.10;;;;;;;19.72;42.53;96197.34;2077607;28;20655;-65
2023/02/22 12:05:09;;;;;;;18.63;8.68;;;;;;;19.51;42.96;96200.06;2069145;28;20220;-65
2023/02/22 12:06:18;;;;;;;12.40;7.35;;;;;;;19.39;43.61;96191.41;2078991;28;20192;-65
2023/02/22 12:07:41;;;;;;;16.73;8.43;;;;;;;19.73;42.87;96193.72;2079394;28;20193;-65
2023/02/22 12:08:58;;;;;;;16.67;8.00;;;;;;;19.86;42.83;96180.25;2077476;28;20714;-65
2023/02/22 12:10:18;;;;;;;16.58;7.75;;;;;;;20.12;42.66;96200.91;2073337;28;20278;-65
2023/02/22 12:11:31;;;;;;;15.27;8.02;;;;;;;20.17;42.28;96184.59;2079309;28;20193;-65
2023/02/22 12:13:10;;;;;;;16.83;7.88;;;;;;;20.73;41.29;96192.81;2075512;28;20557;-65
2023/02/22 12:14:30;;;;;;;11.70;8.10;;;;;;;20.18;41.49;96184.44;2076249;28;20217;-65
2023/02/22 12:15:51;;;;;;;12.98;7.78;;;;;;;20.14;41.89;96196.31;2076987;28;20201;-65
2023/02/22 12:17:09;;;;;;;19.17;8.75;;;;;;;20.68;41.41;96180.78;2076994;28;20223;-65
2023/02/22 12:18:23;;;;;;;17.92;8.93;;;;;;;20.54;41.37;96184.72;2077805;28;20598;-65
2023/02/22 12:19:34;;;;;;;16.42;7.97;;;;;;;20.97;41.01;96185.19;2078642;28;20207;-65
2023/02/22 12:20:39;;;;;;;17.60;9.07;;;;;;;20.12;41.17;96184.19;2078537;28;20201;-65
2023/02/22 12:21:45;;;;;;;13.98;7.60;;;;;;;19.81;41.87;96189.56;2075840;28;20209;-65
2023/02/22 12:22:59;;;;;;;27.17;9.10;;;;;;;19.99;41.74;96181.81;2078010;28;20197;-65
2023/02/22 12:24:04;;;;;;;18.33;8.27;;;;;;;20.09;41.83;96182.66;2072542;28;20201;-65
2023/02/22 12:25:18;;;;;;;12.30;8.40;;;;;;;19.92;41.46;96181.50;2071964;28;20226;-65
2023/02/22 12:26:29;;;;;;;19.00;8.00;;;;;;;19.57;42.64;96180.19;2072681;28;20508;-65
2023/02/22 12:27:49;;;;;;;13.15;7.47;;;;;;;20.01;42.75;96186.00;2072902;28;20219;-65
2023/02/22 12:28:58;;;;;;;13.27;7.97;;;;;;;19.55;43.17;96177.66;2072697;28;20716;-66
2023/02/22 12:30:15;;;;;;;23.58;8.35;;;;;;;19.46;42.90;96180.28;2074366;28;20314;-65
2023/02/22 12:31:32;;;;;;;12.80;8.60;;;;;;;20.08;42.76;96188.09;2072146;28;20206;-67
2023/02/22 12:32:57;;;;;;;14.90;8.13;;;;;;;19.68;42.05;96176.56;2072910;28;20194;-66
2023/02/22 12:34:02;;;;;;;17.90;8.27;;;;;;;18.88;42.93;96179.88;2074707;28;20649;-65
2023/02/22 12:35:15;;;;;;;16.45;8.57;;;;;;;19.49;42.43;96187.94;2074564;28;20217;-65
2023/02/22 12:36:20;;;;;;;14.63;8.60;;;;;;;19.62;42.13;96177.97;2076604;28;20205;-65
2023/02/22 12:37:26;;;;;;;14.88;8.80;;;;;;;19.14;42.91;96176.81;2074995;28;20325;-66
2023/02/22 12:38:43;;;;;;;15.43;9.27;;;;;;;18.48;43.78;96183.25;2079577;28;20208;-66
2023/02/22 12:40:07;;;;;;;21.95;8.30;;;;;;;17.51;45.75;96172.66;2074133;28;20213;-65
2023/02/22 12:41:22;;;;;;;16.50;8.90;;;;;;;18.12;45.28;96180.09;2077892;28;20201;-65
2023/02/22 12:42:46;;;;;;;12.40;7.30;;;;;;;18.74;43.93;96182.84;2073568;28;20732;-66
2023/02/22 12:43:52;;;;;;;20.80;9.32;;;;;;;19.21;42.97;96180.63;2076551;28;20744;-65
2023/02/22 12:45:00;;;;;;;18.83;9.20;;;;;;;19.62;42.83;96170.00;2075235;28;20274;-66
2023/02/22 12:46:14;;;;;;;16.05;8.18;;;;;;;19.57;43.05;96175.69;2075241;28;20289;-65
2023/02/22 12:47:30;;;;;;;23.02;9.68;;;;;;;19.18;44.01;96186.16;2077965;28;20282;-65
2023/02/22 12:48:39;;;;;;;13.77;7.72;;;;;;;19.01;44.44;96185.00;2076742;28;20239;-65
2023/02/22 12:49:48;;;;;;;19.85;9.45;;;;;;;18.60;44.64;96181.38;2077989;28;20221;-65
2023/02/22 12:50:56;;;;;;;18.45;9.00;;;;;;;18.57;44.71;96181.66;2074913;28;20232;-65
2023/02/22 12:52:32;;;;;;;18.08;9.13;;;;;;;18.58;45.04;96181.53;2078886;28;20228;-66
2023/02/22 12:53:37;;;;;;;15.57;8.48;;;;;;;18.83;45.00;96178.59;2075358;28;20225;-65
2023/02/22 12:54:55;;;;;;;18.75;8.93;;;;;;;19.12;44.32;96178.75;2072317;28;20222;-66
2023/02/22 12:56:08;;;;;;;20.73;8.77;;;;;;;18.92;44.36;96164.63;2073623;28;20323;-65
2023/02/22 12:57:30;;;;;;;15.38;8.85;;;;;;;19.14;44.88;96176.81;2076267;28;20197;-65
2023/02/22 12:58:38;;;;;;;27.60;9.13;;;;;;;19.07;44.30;96157.16;2075753;28;20719;-66
2023/02/22 12:59:56;;;;;;;15.13;8.90;;;;;;;19.21;44.71;96177.13;2072813;28;20312;-65
2023/02/22 13:01:10;;;;;;;13.40;8.45;;;;;;;19.08;44.43;96177.34;2076874;28;20542;-65
2023/02/22 13:02:27;;;;;;;13.15;8.00;;;;;;;19.32;43.95;96173.56;2074116;28;20197;-65
2023/02/22 13:03:41;;;;;;;16.40;7.82;;;;;;;19.31;43.66;96182.47;2076234;28;20618;-65
2023/02/22 13:04:42;;;;;;;13.50;8.27;;;;;;;19.31;43.72;96177.16;2078892;28;20216;-65
2023/02/22 13:05:54;;;;;;;12.43;7.85;;;;;;;18.91;44.66;96169.06;2073638;28;20206;-65
2023/02/22 13:06:55;;;;;;;11.77;7.93;;;;;;;18.89;44.74;96175.44;2073778;28;20205;-65
2023/02/22 13:08:05;;;;;;;15.23;7.68;;;;;;;18.77;45.08;96167.56;2076615;28;20385;-67
2023/02/22 13:09:38;;;;;;;20.83;7.90;;;;;;;18.62;45.46;96176.00;2075465;28;20208;-66
2023/02/22 13:11:07;;;;;;;15.48;7.80;;;;;;;18.21;45.70;96173.22;2073693;28;20672;-67
2023/02/22 13:12:13;;;;;;;15.70;7.97;;;;;;;17.76;46.03;96163.59;2080405;28;20201;-66
2023/02/22 13:13:34;;;;;;;16.83;8.30;;;;;;;17.02;47.61;96172.97;2079023;28;20207;-67
2023/02/22 13:14:54;;;;;;;15.38;9.05;;;;;;;17.30;47.44;96165.50;2074174;28;20228;-67
2023/02/22 13:16:08;;;;;;;17.10;8.50;;;;;;;17.63;46.97;96166.41;2076643;28;20203;-66
2023/02/22 13:17:30;;;;;;;19.10;8.23;;;;;;;17.67;47.27;96161.72;2075406;28;20766;-67
2023/02/22 13:18:41;;;;;;;18.38;7.78;;;;;;;17.83;47.17;96163.97;2079456;28;20674;-67
2023/02/22 13:20:17;;;;;;;13.60;8.80;;;;;;;17.83;47.00;96166.59;2077614;28;20228;-66
2023/02/22 13:21:46;;;;;;;23.15;8.55;;;;;;;17.69;46.79;96160.63;2064826;28;20253;-65
2023/02/22 13:23:15;;;;;;;15.43;8.50;;;;;;;17.22;46.83;96166.13;2077924;28;20204;-67
2023/02/22 13:24:42;;;;;;;21.48;8.63;;;;;;;17.28;47.49;96165.63;2073936;28;20711;-66
2023/02/22 13:26:02;;;;;;;13.95;8.20;;;;;;;17.44;47.57;96157.31;2079655;28;20193;-66
2023/02/22 13:27:16;;;;;;;13.02;7.93;;;;;;;17.51;47.46;96156.84;2074987;28;20197;-60
2023/02/22 13:28:27;;;;;;;14.52;8.18;;;;;;;17.28;48.19;96148.94;2076908;28;20228;-60
2023/02/22 13:29:36;;;;;;;15.70;7.85;;;;;;;17.18;48.37;96156.78;2074594;28;20198;-60
2023/02/22 13:30:49;;;;;;;15.00;8.45;;;;;;;17.18;48.34;96163.84;2075988;28;20272;-60
2023/02/22 13:32:12;;;;;;;13.98;8.13;;;;;;;17.02;48.59;96159.78;2075721;28;20529;-60
2023/02/22 13:33:23;;;;;;;18.48;8.13;;;;;;;17.06;48.61;96155.94;2075302;28;20739;-60
2023/02/22 13:35:04;;;;;;;20.02;8.50;;;;;;;17.04;48.35;96151.72;2076109;28;20229;-60
2023/02/22 13:36:34;;;;;;;15.18;7.93;;;;;;;16.95;49.02;96162.06;2077041;28;20715;-60
2023/02/22 13:38:16;;;;;;;15.60;8.13;;;;;;;16.76;48.79;96164.41;2073301;28;20198;-60
2023/02/22 13:39:28;;;;;;;15.68;8.07;;;;;;;16.45;49.26;96161.50;2074507;28;20629;-60
2023/02/22 13:41:14;;;;;;;11.60;7.63;;;;;;;16.92;48.64;96166.72;2076790;28;20197;-60
2023/02/22 13:42:24;;;;;;;14.77;7.75;;;;;;;17.04;48.77;96163.13;2076775;28;20638;-60
2023/02/22 13:43:41;;;;;;;15.73;6.97;;;;;;;16.94;48.94;96163.00;2077158;28;20202;-60
2023/02/22 13:45:04;;;;;;;13.45;7.55;;;;;;;16.91;48.75;96158.00;2074426;28;20235;-60
2023/02/22 13:46:28;;;;;;;20.48;8.10;;;;;;;16.72;49.29;96155.91;2073093;28;20193;-59
2023/02/22 13:47:57;;;;;;;13.93;7.38;;;;;;;16.91;49.36;96159.78;2074012;28;20198;-60
2023/02/22 13:49:17;;;;;;;12.02;7.50;;;;;;;16.72;49.56;96161.19;2076024;28;20297;-60
2023/02/22 13:50:44;;;;;;;15.15;7.45;;;;;;;16.76;50.05;96156.50;2074433;28;20220;-60
2023/02/22 13:51:49;;;;;;;18.33;7.72;;;;;;;16.92;49.83;96159.66;2080012;28;20197;-60
2023/02/22 13:52:54;;;;;;;18.52;8.40;;;;;;;16.81;49.82;96154.34;2079849;28;20386;-60
2023/02/22 13:54:01;;;;;;;17.33;7.65;;;;;;;16.86;49.59;96146.06;2076121;28;20194;-60
2023/02/22 13:55:10;;;;;;;17.65;8.05;;;;;;;16.77;49.61;96163.44;2074493;28;20782;-60
2023/02/22 13:56:13;;;;;;;14.82;7.28;;;;;;;16.86;49.47;96157.47;2074202;28;20212;-60
2023/02/22 13:57:28;;;;;;;17.60;8.57;;;;;;;16.82;49.26;96156.00;2073388;28;20664;-60
2023/02/22 13:58:29;;;;;;;16.63;7.93;;;;;;;16.75;49.38;96150.38;2075662;28;20193;-60
2023/02/22 13:59:34;;;;;;;14.90;7.55;;;;;;;16.83;49.17;96156.88;2073707;28;20279;-60
2023/02/22 14:01:05;;;;;;;22.63;8.30;;;;;;;16.75;49.60;96162.75;2078459;28;20205;-60
2023/02/22 14:02:31;;;;;;;24.40;8.60;;;;;;;16.56;49.67;96165.97;2075302;28;20642;-60
2023/02/22 14:03:39;;;;;;;20.55;7.53;;;;;;;16.16;50.78;96162.75;2075250;28;20201;-60
2023/02/22 14:04:41;;;;;;;14.93;6.90;;;;;;;16.68;50.24;96151.81;2075241;28;20680;-59